createdAt,value
2019-02-14T00:00:25.801Z,4.12
2019-02-14T00:02:53.382Z,4.15
2019-02-14T00:05:20.881Z,4.10
2019-02-14T00:07:48.481Z,4.15
2019-02-14T00:10:16.074Z,4.12
2019-02-14T00:12:43.689Z,4.17
2019-02-14T00:15:11.389Z,4.04
2019-02-14T00:17:38.954Z,4.13
2019-02-14T00:20:07.181Z,4.11
2019-02-14T00:22:34.850Z,4.18
2019-02-14T00:25:02.416Z,4.20
2019-02-14T00:27:30.089Z,4.18
2019-02-14T00:29:57.649Z,4.16
2019-02-14T00:32:25.301Z,4.16
2019-02-14T00:34:52.809Z,4.12
2019-02-14T00:37:20.381Z,4.01
2019-02-14T00:39:47.942Z,3.94
2019-02-14T00:42:15.542Z,3.93
2019-02-14T00:44:43.021Z,3.88
2019-02-14T00:47:10.630Z,3.81
2019-02-14T00:49:38.181Z,3.75
2019-02-14T00:52:05.721Z,3.76
2019-02-14T00:54:33.341Z,3.78
2019-02-14T00:57:00.929Z,3.76
2019-02-14T00:59:28.581Z,3.70
2019-02-14T01:01:56.621Z,3.67
2019-02-14T01:04:24.161Z,3.59
2019-02-14T01:06:51.729Z,3.69
2019-02-14T01:09:19.321Z,3.69
2019-02-14T01:11:46.873Z,3.72
2019-02-14T01:14:14.682Z,3.61
2019-02-14T01:16:42.252Z,3.71
2019-02-14T01:19:09.824Z,3.59
2019-02-14T01:21:37.321Z,3.63
2019-02-14T01:24:04.923Z,3.53
2019-02-14T01:26:32.421Z,3.63
2019-02-14T01:29:00.081Z,3.70
2019-02-14T01:31:27.620Z,3.63
2019-02-14T01:33:55.229Z,3.60
2019-02-14T01:36:22.781Z,3.55
2019-02-14T01:38:50.381Z,3.54
2019-02-14T01:41:17.961Z,3.50
2019-02-14T01:43:45.520Z,3.51
2019-02-14T01:46:13.162Z,3.55
2019-02-14T01:48:40.829Z,3.60
2019-02-14T01:51:08.349Z,3.58
2019-02-14T01:53:35.949Z,3.50
2019-02-14T01:56:03.870Z,3.44
2019-02-14T01:58:31.411Z,3.35
2019-02-14T02:00:59.093Z,3.38
2019-02-14T02:03:26.643Z,3.35
2019-02-14T02:05:54.371Z,3.32
2019-02-14T02:08:22.091Z,3.24
2019-02-14T02:10:49.686Z,3.23
2019-02-14T02:13:17.384Z,3.50
2019-02-14T02:15:45.331Z,3.49
2019-02-14T02:18:13.043Z,3.42
2019-02-14T02:20:40.885Z,3.39
2019-02-14T02:23:08.412Z,3.21
2019-02-14T02:25:35.932Z,3.28
2019-02-14T02:28:03.672Z,3.24
2019-02-14T02:30:31.293Z,3.39
2019-02-14T02:32:58.905Z,3.53
2019-02-14T02:35:26.563Z,3.52
2019-02-14T02:37:56.603Z,3.42
2019-02-14T02:40:24.203Z,3.34
2019-02-14T02:42:52.405Z,3.36
2019-02-14T02:45:20.001Z,3.41
2019-02-14T02:47:47.550Z,3.41
2019-02-14T02:50:15.089Z,3.45
2019-02-14T02:52:43.772Z,3.39
2019-02-14T02:55:11.380Z,3.18
2019-02-14T02:57:38.965Z,2.98
2019-02-14T03:00:10.721Z,2.79
2019-02-14T03:02:38.269Z,2.78
2019-02-14T03:05:06.563Z,2.80
2019-02-14T03:07:34.063Z,2.65
2019-02-14T03:10:01.631Z,2.55
2019-02-14T03:12:29.263Z,2.38
2019-02-14T03:14:57.881Z,2.40
2019-02-14T03:17:25.421Z,2.49
2019-02-14T03:19:53.043Z,2.41
2019-02-14T03:22:20.569Z,2.22
2019-02-14T03:24:48.260Z,2.13
2019-02-14T03:27:15.821Z,2.14
2019-02-14T03:29:43.401Z,2.07
2019-02-14T03:32:10.983Z,2.02
2019-02-14T03:34:38.569Z,1.75
2019-02-14T03:37:06.131Z,1.83
2019-02-14T03:39:34.741Z,1.84
2019-02-14T03:42:02.302Z,1.90
2019-02-14T03:44:29.933Z,1.83
2019-02-14T03:46:57.521Z,1.73
2019-02-14T03:49:25.201Z,1.52
2019-02-14T03:51:52.761Z,1.37
2019-02-14T03:54:20.470Z,1.30
2019-02-14T03:56:48.089Z,1.26
2019-02-14T03:59:15.624Z,1.14
2019-02-14T04:01:43.169Z,1.29
2019-02-14T04:04:10.701Z,1.28
2019-02-14T04:06:38.303Z,1.28
2019-02-14T04:09:07.249Z,1.14
2019-02-14T04:11:34.870Z,0.99
2019-02-14T04:14:02.530Z,1.05
2019-02-14T04:16:30.189Z,1.38
2019-02-14T04:18:57.748Z,1.16
2019-02-14T04:21:25.381Z,1.15
2019-02-14T04:23:52.969Z,1.17
2019-02-14T04:26:20.552Z,1.21
2019-02-14T04:28:48.081Z,1.34
2019-02-14T04:31:15.669Z,1.20
2019-02-14T04:33:43.181Z,1.24
2019-02-14T04:36:10.849Z,1.22
2019-02-14T04:38:38.381Z,1.35
2019-02-14T04:41:05.968Z,1.39
2019-02-14T04:43:33.581Z,1.40
2019-02-14T04:46:01.169Z,1.33
2019-02-14T04:48:28.749Z,1.25
2019-02-14T04:50:56.371Z,1.37
2019-02-14T04:53:23.925Z,1.36
2019-02-14T04:55:51.469Z,1.33
2019-02-14T04:58:19.161Z,1.34
2019-02-14T05:00:46.670Z,1.43
2019-02-14T05:03:14.289Z,1.51
2019-02-14T05:05:41.829Z,1.42
2019-02-14T05:08:09.452Z,1.62
2019-02-14T05:10:37.003Z,1.91
2019-02-14T05:13:04.601Z,1.99
2019-02-14T05:15:32.402Z,2.05
2019-02-14T05:17:59.949Z,2.42
2019-02-14T05:20:27.461Z,2.16
2019-02-14T05:22:55.030Z,2.15
2019-02-14T05:25:22.615Z,1.38
2019-02-14T05:27:50.141Z,1.63
2019-02-14T05:30:17.689Z,1.45
2019-02-14T05:32:45.309Z,1.48
2019-02-14T05:35:12.973Z,1.41
2019-02-14T05:37:40.416Z,1.35
2019-02-14T05:40:08.249Z,1.32
2019-02-14T05:42:35.683Z,1.31
2019-02-14T05:45:03.218Z,1.38
2019-02-14T05:47:30.672Z,1.49
2019-02-14T05:49:58.023Z,1.47
2019-02-14T05:52:25.462Z,1.52
2019-02-14T05:54:52.831Z,1.41
2019-02-14T05:57:20.273Z,1.40
2019-02-14T05:59:47.654Z,1.37
2019-02-14T06:02:16.964Z,1.44
2019-02-14T06:04:44.331Z,1.46
2019-02-14T06:07:17.774Z,1.55
2019-02-14T06:46:39.001Z,1.44
2019-02-14T20:22:23.648Z,2.69
2019-02-14T20:33:03.888Z,2.57
2019-02-14T20:42:37.668Z,2.25
2019-02-14T20:45:06.327Z,2.07
2019-02-14T20:47:43.788Z,1.98
2019-02-14T20:50:12.134Z,1.76
2019-02-14T20:52:43.937Z,1.89
2019-02-14T20:55:20.761Z,1.95
2019-02-14T20:57:48.689Z,1.95
2019-02-14T21:00:29.946Z,1.95
2019-02-14T21:02:58.049Z,1.97
2019-02-14T21:05:26.099Z,1.89
2019-02-14T21:07:54.104Z,1.88
2019-02-14T21:10:22.338Z,1.89
2019-02-14T21:12:50.824Z,1.84
2019-02-14T21:15:18.882Z,1.82
2019-02-14T21:17:46.881Z,1.75
2019-02-14T21:20:14.991Z,1.59
2019-02-14T21:22:43.291Z,1.54
2019-02-14T21:25:22.073Z,1.53
2019-02-14T21:27:54.223Z,1.54
2019-02-14T21:30:25.118Z,1.46
2019-02-14T21:33:11.995Z,1.45
2019-02-14T21:35:42.786Z,1.42
2019-02-14T21:38:10.775Z,1.46
2019-02-14T21:40:38.545Z,1.39
2019-02-14T21:43:06.450Z,1.26
2019-02-14T21:45:34.530Z,1.39
2019-02-14T21:48:02.821Z,1.28
2019-02-14T21:50:30.373Z,1.21
2019-02-14T21:52:58.197Z,1.22
2019-02-14T21:55:31.169Z,1.19
2019-02-14T21:57:58.690Z,1.24
2019-02-14T22:00:26.317Z,1.29
2019-02-14T22:02:53.889Z,1.27
2019-02-14T22:05:25.253Z,1.28
2019-02-14T22:07:50.802Z,1.22
2019-02-14T22:10:18.201Z,1.30
2019-02-14T22:12:45.697Z,1.51
2019-02-14T22:15:14.306Z,1.56
2019-02-14T22:17:42.242Z,1.64
2019-02-14T22:20:09.771Z,1.79
2019-02-14T22:22:37.231Z,1.95
2019-02-14T22:25:04.904Z,1.92
2019-02-14T22:27:32.356Z,1.51
2019-02-14T22:29:59.851Z,1.35
2019-02-14T22:32:27.344Z,1.21
2019-02-14T22:34:54.734Z,1.05
2019-02-14T22:37:22.181Z,0.99
2019-02-14T22:39:49.555Z,0.99
2019-02-14T22:42:16.950Z,0.89
2019-02-14T22:44:44.407Z,0.87
2019-02-14T22:47:11.816Z,0.96
2019-02-14T22:49:39.240Z,0.80
2019-02-14T22:52:06.630Z,0.75
2019-02-14T22:54:34.061Z,0.73
2019-02-14T22:57:01.425Z,0.62
2019-02-14T22:59:28.895Z,0.63
2019-02-14T23:01:56.309Z,0.58
2019-02-14T23:04:23.873Z,0.51
2019-02-14T23:06:51.255Z,0.54
2019-02-14T23:09:18.806Z,0.59
2019-02-14T23:11:46.186Z,0.52
2019-02-14T23:14:13.636Z,0.39
2019-02-14T23:16:41.101Z,0.38
2019-02-14T23:19:08.631Z,0.40
2019-02-14T23:21:36.046Z,0.35
2019-02-14T23:24:03.500Z,0.27
2019-02-14T23:26:30.893Z,0.30
2019-02-14T23:28:58.772Z,0.28
2019-02-14T23:31:26.200Z,0.26
2019-02-14T23:33:53.616Z,0.27
2019-02-14T23:36:21.023Z,0.27
2019-02-14T23:38:48.475Z,0.26
2019-02-14T23:41:15.871Z,0.24
2019-02-14T23:43:43.400Z,0.19
2019-02-14T23:46:11.306Z,0.12
2019-02-14T23:48:39.644Z,0.12
2019-02-14T23:51:07.129Z,0.16
2019-02-14T23:53:34.705Z,0.21
2019-02-14T23:56:02.153Z,0.23
2019-02-14T23:58:29.690Z,0.23
